createdAt,value
2022-09-15T00:02:25.374Z,3.33
2022-09-15T00:04:51.996Z,2.75
2022-09-15T00:07:18.585Z,2.90
2022-09-15T00:09:45.063Z,2.88
2022-09-15T00:12:11.726Z,3.50
2022-09-15T00:14:38.265Z,3.83
2022-09-15T00:17:04.857Z,3.33
2022-09-15T00:19:31.391Z,3.25
2022-09-15T00:21:57.881Z,3.80
2022-09-15T00:24:24.517Z,3.45
2022-09-15T00:26:51.039Z,3.28
2022-09-15T00:29:17.538Z,4.40
2022-09-15T00:31:44.052Z,4.07
2022-09-15T00:34:12.680Z,4.40
2022-09-15T00:36:39.394Z,4.70
2022-09-15T00:39:06.417Z,5.28
2022-09-15T00:41:33.005Z,4.75
2022-09-15T00:44:02.741Z,5.53
2022-09-15T00:46:33.232Z,4.82
2022-09-15T00:49:13.557Z,5.47
2022-09-15T00:51:42.943Z,5.43
2022-09-15T00:54:16.413Z,5.45
2022-09-15T00:56:44.309Z,5.72
2022-09-15T00:59:15.373Z,6.47
2022-09-15T01:01:43.808Z,7.32
2022-09-15T01:04:10.817Z,6.35
2022-09-15T01:06:41.567Z,6.18
2022-09-15T01:09:13.303Z,6.38
2022-09-15T01:11:40.169Z,7.55
2022-09-15T01:14:07.173Z,6.55
2022-09-15T01:16:50.611Z,7.00
2022-09-15T01:20:00.102Z,7.35
2022-09-15T01:22:37.124Z,9.25
2022-09-15T01:25:10.610Z,8.02
2022-09-15T01:27:51.903Z,8.13
2022-09-15T01:30:24.877Z,8.32
2022-09-15T01:33:06.643Z,9.10
2022-09-15T01:35:52.725Z,8.30
2022-09-15T01:38:37.910Z,9.15
2022-09-15T01:41:25.381Z,9.45
2022-09-15T01:44:13.466Z,8.70
2022-09-15T01:46:47.685Z,9.43
2022-09-15T01:49:18.194Z,8.60
2022-09-15T01:51:45.717Z,9.45
2022-09-15T01:54:13.191Z,9.60
2022-09-15T01:56:41.935Z,9.95
2022-09-15T01:59:09.408Z,10.45
2022-09-15T02:01:47.079Z,9.82
2022-09-15T02:04:36.699Z,10.07
2022-09-15T02:07:11.740Z,9.88
2022-09-15T02:09:54.655Z,9.13
2022-09-15T02:12:35.675Z,8.70
2022-09-15T02:15:10.495Z,8.60
2022-09-15T02:17:42.645Z,7.35
2022-09-15T02:20:16.073Z,6.75
2022-09-15T02:22:47.714Z,6.50
2022-09-15T02:25:18.582Z,5.80
2022-09-15T02:27:48.914Z,5.90
2022-09-15T02:30:17.572Z,4.85
2022-09-15T02:32:51.891Z,4.85
2022-09-15T02:35:18.631Z,5.00
2022-09-15T02:37:46.207Z,5.53
2022-09-15T02:40:12.930Z,4.65
2022-09-15T02:42:39.593Z,4.40
2022-09-15T02:45:06.839Z,4.90
2022-09-15T02:47:33.311Z,5.30
2022-09-15T02:50:00.087Z,4.65
2022-09-15T02:52:26.620Z,4.18
2022-09-15T02:54:53.470Z,4.40
2022-09-15T02:57:20.994Z,4.30
2022-09-15T03:00:13.362Z,4.28
2022-09-15T03:02:45.475Z,4.18
2022-09-15T03:05:13.907Z,3.83
2022-09-15T03:07:40.582Z,4.30
2022-09-15T03:10:08.937Z,3.92
2022-09-15T03:12:43.888Z,3.50
2022-09-15T03:15:12.981Z,4.15
2022-09-15T03:17:43.936Z,4.25
2022-09-15T03:20:12.396Z,3.40
2022-09-15T03:22:39.192Z,3.25
2022-09-15T03:25:07.345Z,3.47
2022-09-15T03:27:34.677Z,4.00
2022-09-15T03:30:01.844Z,3.13
2022-09-15T03:32:28.492Z,3.33
2022-09-15T03:34:58.344Z,3.55
2022-09-15T03:37:25.525Z,3.20
2022-09-15T03:39:52.094Z,2.88
2022-09-15T03:42:19.641Z,3.42
2022-09-15T03:44:46.143Z,3.50
2022-09-15T03:47:13.123Z,3.38
2022-09-15T03:49:39.616Z,3.75
2022-09-15T03:52:06.164Z,3.38
2022-09-15T03:54:32.705Z,3.03
2022-09-15T03:56:59.162Z,3.00
2022-09-15T03:59:25.722Z,2.78
2022-09-15T04:01:52.346Z,2.72
2022-09-15T04:04:19.232Z,2.55
2022-09-15T04:06:45.890Z,2.58
2022-09-15T04:09:12.470Z,2.83
2022-09-15T04:11:39.565Z,2.33
2022-09-15T04:14:06.078Z,2.50
2022-09-15T04:16:32.587Z,2.08
2022-09-15T04:18:59.349Z,2.03
2022-09-15T04:21:26.728Z,1.98
2022-09-15T04:23:54.190Z,2.03
2022-09-15T04:26:22.983Z,2.70
2022-09-15T04:28:49.600Z,2.30
2022-09-15T04:31:17.054Z,2.83
2022-09-15T04:33:44.350Z,2.38
2022-09-15T04:36:13.676Z,2.67
2022-09-15T04:38:40.570Z,3.15
2022-09-15T04:41:07.217Z,2.75
2022-09-15T04:43:34.464Z,3.08
2022-09-15T04:46:01.038Z,3.10
2022-09-15T04:48:27.796Z,3.00
2022-09-15T04:50:54.729Z,2.90
2022-09-15T04:53:21.352Z,2.75
2022-09-15T04:55:47.834Z,2.63
2022-09-15T04:58:14.318Z,2.13
2022-09-15T05:00:45.969Z,3.05
2022-09-15T05:03:14.064Z,2.47
2022-09-15T05:05:40.902Z,2.10
2022-09-15T05:08:08.188Z,2.22
2022-09-15T05:10:35.182Z,1.77
2022-09-15T05:13:01.675Z,2.65
2022-09-15T05:15:28.171Z,1.85
2022-09-15T05:17:54.760Z,1.85
2022-09-15T05:20:21.324Z,2.25
2022-09-15T05:22:47.875Z,1.70
2022-09-15T05:25:14.522Z,2.13
2022-09-15T05:27:41.346Z,1.88
2022-09-15T05:30:36.907Z,1.60
2022-09-15T05:32:55.029Z,2.05
2022-09-15T05:35:21.818Z,2.35
2022-09-15T05:37:48.396Z,2.25
2022-09-15T05:40:15.357Z,2.17
2022-09-15T05:42:41.877Z,2.03
2022-09-15T05:45:08.930Z,2.30
2022-09-15T05:47:35.559Z,2.05
2022-09-15T05:50:02.106Z,2.10
2022-09-15T05:52:28.556Z,2.50
2022-09-15T05:54:58.971Z,2.85
2022-09-15T05:57:25.809Z,2.47
2022-09-15T05:59:52.419Z,2.03
2022-09-15T06:02:19.023Z,3.17
2022-09-15T06:04:45.688Z,2.38
2022-09-15T06:07:12.436Z,2.22
2022-09-15T06:09:39.533Z,2.53
2022-09-15T06:12:06.249Z,2.28
2022-09-15T06:14:32.725Z,2.95
2022-09-15T06:16:59.280Z,2.50
2022-09-15T06:19:25.781Z,2.53
2022-09-15T06:21:54.024Z,3.03
2022-09-15T06:24:20.579Z,2.40
2022-09-15T06:26:47.281Z,1.90
2022-09-15T06:29:13.817Z,2.28
2022-09-15T06:31:40.649Z,2.28
2022-09-15T06:34:08.644Z,2.20
2022-09-15T06:36:37.635Z,1.90
2022-09-15T06:39:04.660Z,2.30
2022-09-15T06:41:52.466Z,2.65
2022-09-15T06:44:19.009Z,2.40
2022-09-15T06:46:45.737Z,2.30
2022-09-15T06:49:12.397Z,3.05
2022-09-15T06:51:38.898Z,1.90
2022-09-15T06:54:05.740Z,1.73
2022-09-15T06:56:37.615Z,1.75
2022-09-15T06:59:04.721Z,2.13
2022-09-15T07:01:32.033Z,2.00
2022-09-15T07:04:00.787Z,2.08
2022-09-15T07:06:31.766Z,1.52
2022-09-15T07:08:58.783Z,1.55
2022-09-15T07:11:25.615Z,2.00
2022-09-15T07:13:52.243Z,1.55
2022-09-15T07:16:19.437Z,1.58
2022-09-15T07:18:46.922Z,1.55
2022-09-15T07:21:18.497Z,1.40
2022-09-15T07:23:45.035Z,1.38
2022-09-15T07:26:12.973Z,1.42
2022-09-15T07:28:42.043Z,1.65
2022-09-15T07:31:10.804Z,1.60
2022-09-15T07:33:37.334Z,1.25
2022-09-15T07:36:06.049Z,1.50
2022-09-15T07:38:33.511Z,1.85
2022-09-15T07:41:11.133Z,1.35
2022-09-15T07:43:38.301Z,1.90
2022-09-15T07:46:05.593Z,1.27
2022-09-15T07:48:32.157Z,1.92
2022-09-15T07:50:59.955Z,1.85
2022-09-15T07:53:30.331Z,1.52
2022-09-15T07:55:57.051Z,1.48
2022-09-15T07:58:23.773Z,1.55
2022-09-15T08:00:50.583Z,1.65
2022-09-15T08:03:17.176Z,2.30
2022-09-15T08:05:45.776Z,1.35
2022-09-15T08:08:12.555Z,1.42
2022-09-15T08:10:41.175Z,1.10
2022-09-15T08:13:08.265Z,1.27
2022-09-15T08:15:38.769Z,1.45
2022-09-15T08:18:05.977Z,0.90
2022-09-15T08:20:33.045Z,1.33
2022-09-15T08:22:59.673Z,1.50
2022-09-15T08:25:26.290Z,1.15
2022-09-15T08:27:54.164Z,1.98
2022-09-15T08:30:21.278Z,1.50
2022-09-15T08:32:48.463Z,1.80
2022-09-15T08:35:15.996Z,1.23
2022-09-15T08:37:42.733Z,1.30
2022-09-15T08:40:24.089Z,1.60
2022-09-15T08:42:52.597Z,1.52
2022-09-15T08:45:31.144Z,0.80
2022-09-15T08:48:00.236Z,1.70
2022-09-15T08:50:32.765Z,1.40
2022-09-15T08:53:06.694Z,1.45
2022-09-15T08:55:41.695Z,1.02
2022-09-15T08:58:26.621Z,0.95
2022-09-15T09:01:31.550Z,1.77
2022-09-15T09:04:17.981Z,1.13
2022-09-15T09:07:00.283Z,1.42
2022-09-15T09:09:50.173Z,0.95
2022-09-15T09:12:25.888Z,0.90
2022-09-15T09:15:11.876Z,0.70
2022-09-15T09:17:57.187Z,1.00
2022-09-15T09:20:32.236Z,0.80
2022-09-15T09:25:27.904Z,0.93
2022-09-15T09:27:55.533Z,1.02
2022-09-15T09:30:23.483Z,0.85
2022-09-15T09:32:52.817Z,0.50
2022-09-15T09:35:42.761Z,1.05
2022-09-15T09:38:10.501Z,0.70
2022-09-15T09:40:41.156Z,1.10
2022-09-15T09:43:08.239Z,0.98
2022-09-15T09:45:34.787Z,0.82
2022-09-15T09:48:06.442Z,1.33
2022-09-15T09:50:39.040Z,1.33
2022-09-15T09:53:20.227Z,1.33
2022-09-15T09:55:46.801Z,0.70
2022-09-15T09:58:21.302Z,1.00
2022-09-15T10:00:48.133Z,1.00
2022-09-15T10:03:20.084Z,1.48
2022-09-15T10:06:01.184Z,1.02
2022-09-15T10:08:27.870Z,1.27
2022-09-15T10:11:00.554Z,1.35
2022-09-15T10:13:27.121Z,1.00
2022-09-15T10:15:56.072Z,1.35
2022-09-15T10:18:33.298Z,1.08
2022-09-15T10:21:01.858Z,1.00
2022-09-15T10:23:30.956Z,1.27
2022-09-15T10:26:20.199Z,1.15
2022-09-15T10:29:11.301Z,0.95
2022-09-15T10:31:38.544Z,1.67
2022-09-15T10:34:31.845Z,1.33
2022-09-15T10:37:24.516Z,1.20
2022-09-15T10:39:55.893Z,1.25
2022-09-15T10:42:50.371Z,1.13
2022-09-15T10:45:31.595Z,1.35
2022-09-15T10:48:20.421Z,0.95
2022-09-15T10:51:02.052Z,0.90
2022-09-15T10:53:46.854Z,1.25
2022-09-15T10:56:30.095Z,1.67
2022-09-15T10:59:34.456Z,0.90
2022-09-15T11:02:28.385Z,1.17
2022-09-15T11:05:07.016Z,0.93
2022-09-15T11:07:36.434Z,1.15
2022-09-15T11:10:18.165Z,1.02
2022-09-15T11:13:03.892Z,0.68
2022-09-15T11:15:46.377Z,1.30
2022-09-15T11:18:28.752Z,1.10
2022-09-15T11:21:05.582Z,1.20
2022-09-15T11:23:36.788Z,1.20
2022-09-15T11:26:34.024Z,0.90
2022-09-15T11:29:06.591Z,1.08
2022-09-15T11:31:42.984Z,1.20
2022-09-15T11:34:39.152Z,1.45
2022-09-15T11:37:24.329Z,1.30
2022-09-15T11:40:01.920Z,1.63
2022-09-15T11:43:00.262Z,1.30
2022-09-15T11:45:29.443Z,1.58
2022-09-15T11:48:12.728Z,1.10
2022-09-15T11:50:41.623Z,1.23
2022-09-15T11:53:25.619Z,1.33
2022-09-15T11:55:57.168Z,1.60
2022-09-15T11:58:41.893Z,1.17
2022-09-15T12:01:15.867Z,1.48
2022-09-15T12:03:50.004Z,1.25
2022-09-15T12:06:40.912Z,1.30
2022-09-15T12:09:14.661Z,1.30
2022-09-15T12:11:44.042Z,1.20
2022-09-15T12:14:29.243Z,1.38
2022-09-15T12:16:57.806Z,2.08
2022-09-15T12:19:36.517Z,1.30
2022-09-15T12:22:19.929Z,1.60
2022-09-15T12:25:03.659Z,1.13
2022-09-15T12:27:30.535Z,1.42
2022-09-15T12:29:59.735Z,1.33
2022-09-15T12:32:31.134Z,1.33
2022-09-15T12:35:16.048Z,1.48
2022-09-15T12:37:46.715Z,1.50
2022-09-15T12:40:35.486Z,1.63
2022-09-15T12:43:23.719Z,1.50
2022-09-15T12:45:56.673Z,1.25
2022-09-15T12:48:29.432Z,1.15
2022-09-15T12:50:56.492Z,1.50
2022-09-15T12:53:26.262Z,1.10
2022-09-15T12:56:01.214Z,1.50
2022-09-15T12:58:39.239Z,1.60
2022-09-15T13:01:33.118Z,1.15
2022-09-15T13:03:59.585Z,1.20
2022-09-15T13:06:27.996Z,1.52
2022-09-15T13:09:06.579Z,1.50
2022-09-15T13:14:26.505Z,0.77
2022-09-15T13:17:06.734Z,1.02
2022-09-15T13:19:33.181Z,1.08
2022-09-15T13:22:12.015Z,1.25
2022-09-15T13:25:03.245Z,1.80
2022-09-15T13:27:36.335Z,1.17
2022-09-15T13:30:22.191Z,1.30
2022-09-15T13:33:10.800Z,1.33
2022-09-15T13:35:52.528Z,1.17
2022-09-15T13:38:44.115Z,2.17
2022-09-15T13:41:33.216Z,1.83
2022-09-15T13:44:02.792Z,2.28
2022-09-15T13:46:41.154Z,1.40
2022-09-15T13:49:26.153Z,1.65
2022-09-15T13:52:00.280Z,1.40
2022-09-15T13:54:26.789Z,1.35
2022-09-15T13:56:53.464Z,1.23
2022-09-15T13:59:27.704Z,1.55
2022-09-15T14:01:54.710Z,1.10
2022-09-15T14:04:29.507Z,1.08
2022-09-15T14:07:00.798Z,1.05
2022-09-15T14:09:31.099Z,1.20
2022-09-15T14:11:59.705Z,1.10
2022-09-15T14:14:35.470Z,1.25
2022-09-15T14:17:02.218Z,1.15
2022-09-15T14:19:33.270Z,0.88
2022-09-15T14:22:01.763Z,1.40
2022-09-15T14:24:30.549Z,0.90
2022-09-15T14:27:07.722Z,0.85
2022-09-15T14:29:39.621Z,1.45
2022-09-15T14:32:06.546Z,1.13
2022-09-15T14:34:37.009Z,1.60
2022-09-15T14:37:06.035Z,1.63
2022-09-15T14:39:37.688Z,1.48
2022-09-15T14:42:30.846Z,1.67
2022-09-15T14:48:02.888Z,1.27
2022-09-15T14:50:33.262Z,1.42
2022-09-15T14:53:20.891Z,1.90
2022-09-15T14:55:52.491Z,2.03
2022-09-15T14:58:22.959Z,1.98
2022-09-15T15:00:55.077Z,2.33
2022-09-15T15:03:45.129Z,1.73
2022-09-15T15:06:28.727Z,1.48
2022-09-15T15:09:17.080Z,1.83
2022-09-15T15:11:43.707Z,1.75
2022-09-15T15:14:12.475Z,1.83
2022-09-15T15:16:51.084Z,1.52
2022-09-15T15:19:38.430Z,1.52
2022-09-15T15:22:08.801Z,1.17
2022-09-15T15:24:41.105Z,1.60
2022-09-15T15:27:43.294Z,1.45
2022-09-15T15:30:29.696Z,1.70
2022-09-15T15:33:19.555Z,2.63
2022-09-15T15:35:46.613Z,1.15
2022-09-15T15:38:16.852Z,0.90
2022-09-15T15:40:44.319Z,1.00
2022-09-15T15:43:13.596Z,1.70
2022-09-15T15:46:01.219Z,1.33
2022-09-15T15:48:35.210Z,1.30
2022-09-15T15:51:04.576Z,1.17
2022-09-15T15:53:31.185Z,1.92
2022-09-15T15:55:59.576Z,1.50
2022-09-15T15:58:26.536Z,1.48
2022-09-15T16:00:55.035Z,1.40
2022-09-15T16:03:22.518Z,1.58
2022-09-15T16:05:59.052Z,1.50
2022-09-15T16:08:38.101Z,1.50
2022-09-15T16:11:04.953Z,1.60
2022-09-15T16:13:31.437Z,1.10
2022-09-15T16:16:00.602Z,1.10
2022-09-15T16:18:28.458Z,1.60
2022-09-15T16:20:55.484Z,1.33
2022-09-15T16:23:23.118Z,16.48
2022-09-15T16:25:59.454Z,2.78
2022-09-15T16:28:26.225Z,1.40
2022-09-15T16:30:52.754Z,1.33
2022-09-15T16:33:19.598Z,1.00
2022-09-15T16:35:52.704Z,0.75
2022-09-15T16:38:20.324Z,1.33
2022-09-15T16:40:47.890Z,1.10
2022-09-15T16:43:16.631Z,0.90
2022-09-15T16:45:43.672Z,0.90
2022-09-15T16:48:11.178Z,0.90
2022-09-15T16:50:42.637Z,1.35
2022-09-15T16:53:17.885Z,1.27
2022-09-15T16:55:49.223Z,1.00
2022-09-15T16:58:17.014Z,1.40
2022-09-15T17:00:45.086Z,1.38
2022-09-15T17:03:16.576Z,3.03
2022-09-15T17:05:49.774Z,1.67
2022-09-15T17:08:21.394Z,1.38
2022-09-15T17:10:48.513Z,1.40
2022-09-15T17:13:20.837Z,1.20
2022-09-15T17:15:48.918Z,1.50
2022-09-15T17:18:15.705Z,1.60
2022-09-15T17:20:43.646Z,1.50
2022-09-15T17:23:33.752Z,1.35
2022-09-15T17:26:03.273Z,2.25
2022-09-15T17:28:33.931Z,1.02
2022-09-15T17:31:01.323Z,1.80
2022-09-15T17:33:29.249Z,1.48
2022-09-15T17:35:56.070Z,1.20
2022-09-15T17:38:23.082Z,1.48
2022-09-15T17:40:50.645Z,1.67
2022-09-15T17:43:19.588Z,1.30
2022-09-15T17:45:46.873Z,1.17
2022-09-15T17:48:13.431Z,1.30
2022-09-15T17:50:41.718Z,1.75
2022-09-15T17:53:21.398Z,1.20
2022-09-15T17:55:48.665Z,1.35
2022-09-15T17:58:15.332Z,1.95
2022-09-15T18:00:43.362Z,1.90
2022-09-15T18:03:21.134Z,1.48
2022-09-15T18:05:47.758Z,1.77
2022-09-15T18:08:14.496Z,1.33
2022-09-15T18:10:41.122Z,1.80
2022-09-15T18:13:07.660Z,2.00
2022-09-15T18:15:35.329Z,1.92
2022-09-15T18:18:04.108Z,1.55
2022-09-15T18:20:32.719Z,1.52
2022-09-15T18:23:00.262Z,2.22
2022-09-15T18:25:30.899Z,3.03
2022-09-15T18:28:01.625Z,1.63
2022-09-15T18:30:31.535Z,2.17
2022-09-15T18:32:58.999Z,1.67
2022-09-15T18:35:26.115Z,2.65
2022-09-15T18:37:57.710Z,2.13
2022-09-15T18:40:24.791Z,1.92
2022-09-15T18:42:51.459Z,2.00
2022-09-15T18:45:18.660Z,2.22
2022-09-15T18:47:49.976Z,1.90
2022-09-15T18:50:18.799Z,2.03
2022-09-15T18:52:45.307Z,1.83
2022-09-15T18:55:18.179Z,1.63
2022-09-15T18:57:45.161Z,2.78
2022-09-15T19:00:17.625Z,1.88
2022-09-15T19:02:44.148Z,1.60
2022-09-15T19:05:11.589Z,2.50
2022-09-15T19:07:38.891Z,2.28
2022-09-15T19:10:06.807Z,1.98
2022-09-15T19:12:35.042Z,2.42
2022-09-15T19:15:01.755Z,1.80
2022-09-15T19:17:28.225Z,2.10
2022-09-15T19:19:55.154Z,2.40
2022-09-15T19:22:21.781Z,2.67
2022-09-15T19:24:48.353Z,3.30
2022-09-15T19:27:14.846Z,3.08
2022-09-15T19:29:41.802Z,3.50
2022-09-15T19:32:11.781Z,2.45
2022-09-15T19:34:41.137Z,2.65
2022-09-15T19:37:12.240Z,1.83
2022-09-15T19:39:41.923Z,2.28
2022-09-15T19:42:09.791Z,2.13
2022-09-15T19:44:36.449Z,2.55
2022-09-15T19:47:02.941Z,2.10
2022-09-15T19:49:29.445Z,1.70
2022-09-15T19:51:56.092Z,2.47
2022-09-15T19:54:23.650Z,1.95
2022-09-15T19:56:50.184Z,1.70
2022-09-15T19:59:17.179Z,1.65
2022-09-15T20:01:43.653Z,1.95
2022-09-15T20:04:11.144Z,1.88
2022-09-15T20:06:37.929Z,1.80
2022-09-15T20:09:04.642Z,1.70
2022-09-15T20:11:31.779Z,2.58
2022-09-15T20:13:58.437Z,1.80
2022-09-15T20:16:25.025Z,1.77
2022-09-15T20:18:53.913Z,2.00
2022-09-15T20:21:45.784Z,1.52
2022-09-15T20:24:12.570Z,2.10
2022-09-15T20:26:39.084Z,2.03
2022-09-15T20:29:05.585Z,1.80
2022-09-15T20:31:33.089Z,1.58
2022-09-15T20:34:02.218Z,1.70
2022-09-15T20:36:33.295Z,1.65
2022-09-15T20:39:03.157Z,1.95
2022-09-15T20:41:31.794Z,1.67
2022-09-15T20:43:58.631Z,2.63
2022-09-15T20:46:25.309Z,1.58
2022-09-15T20:48:52.568Z,1.50
2022-09-15T20:51:24.000Z,1.60
2022-09-15T20:53:53.364Z,1.50
2022-09-15T20:56:23.172Z,1.30
2022-09-15T20:58:49.734Z,1.40
2022-09-15T21:01:20.247Z,1.30
2022-09-15T21:03:47.812Z,1.42
2022-09-15T21:06:25.157Z,1.50
2022-09-15T21:08:51.966Z,1.30
2022-09-15T21:11:19.829Z,1.35
2022-09-15T21:13:47.182Z,1.27
2022-09-15T21:16:16.382Z,1.05
2022-09-15T21:18:44.664Z,1.20
2022-09-15T21:21:13.726Z,1.60
2022-09-15T21:23:43.026Z,1.10
2022-09-15T21:26:13.536Z,1.75
2022-09-15T21:28:40.350Z,1.30
2022-09-15T21:31:17.595Z,1.50
2022-09-15T21:33:45.438Z,1.50
2022-09-15T21:36:14.684Z,1.92
2022-09-15T21:38:42.246Z,1.80
2022-09-15T21:41:11.194Z,1.67
2022-09-15T21:43:39.734Z,1.63
2022-09-15T21:46:08.498Z,1.55
2022-09-15T21:48:35.874Z,1.30
2022-09-15T21:51:03.928Z,2.38
2022-09-15T21:53:32.172Z,1.92
2022-09-15T21:56:03.352Z,1.60
2022-09-15T21:58:37.914Z,1.10
2022-09-15T22:01:18.743Z,1.55
2022-09-15T22:03:56.609Z,1.60
2022-09-15T22:06:31.504Z,1.17
2022-09-15T22:08:59.254Z,1.40
2022-09-15T22:11:25.786Z,1.40
2022-09-15T22:13:52.304Z,1.50
2022-09-15T22:16:23.557Z,1.40
2022-09-15T22:18:50.605Z,1.40
2022-09-15T22:21:22.436Z,2.05
2022-09-15T22:23:50.202Z,1.42
2022-09-15T22:26:19.214Z,1.60
2022-09-15T22:28:45.749Z,1.73
2022-09-15T22:31:14.021Z,0.98
2022-09-15T22:33:41.296Z,1.65
2022-09-15T22:36:19.328Z,1.50
2022-09-15T22:38:45.893Z,1.15
2022-09-15T22:41:14.839Z,1.50
2022-09-15T22:43:43.107Z,1.20
2022-09-15T22:46:10.110Z,1.48
2022-09-15T22:48:42.462Z,1.70
2022-09-15T22:51:10.456Z,1.80
2022-09-15T22:53:36.966Z,1.15
2022-09-15T22:56:06.550Z,1.20
2022-09-15T22:58:33.800Z,1.40
2022-09-15T23:01:09.544Z,1.27
2022-09-15T23:03:37.200Z,1.35
2022-09-15T23:06:04.271Z,1.40
2022-09-15T23:08:32.115Z,1.55
2022-09-15T23:11:17.155Z,1.30
2022-09-15T23:13:43.671Z,1.60
2022-09-15T23:16:10.370Z,1.27
2022-09-15T23:18:36.951Z,1.20
2022-09-15T23:21:16.466Z,0.88
2022-09-15T23:23:49.038Z,1.20
2022-09-15T23:26:18.351Z,1.50
2022-09-15T23:28:44.929Z,1.20
2022-09-15T23:31:12.849Z,1.23
2022-09-15T23:33:40.142Z,1.00
2022-09-15T23:36:09.767Z,1.10
2022-09-15T23:38:37.966Z,2.08
2022-09-15T23:41:04.590Z,1.20
2022-09-15T23:43:33.175Z,1.02
2022-09-15T23:46:00.713Z,1.20
2022-09-15T23:48:27.674Z,0.98
2022-09-15T23:50:54.345Z,1.60
2022-09-15T23:53:20.898Z,1.33
2022-09-15T23:55:47.702Z,1.20
2022-09-15T23:58:14.215Z,1.20
